Station: ELLX - 30/03/2020 14:50Z (il y a 34 minutes)
ELLX 301450Z 06012KT 030V090 CAVOK 08/M09 Q1025 NOSIG
Vent du 060º - 12 kt (vent de direction variable de 030º à 090º)
Visibilité > 10 km et plafond haut ou pas de nuages significatifs
Température: +08ºC - Point de rosée: -09ºC - QNH: 1025 hPa
Pas de changement significatif prévu dans les 2 heures qui suivent l'observation